Portada
METAR-TAF:

METAR-TAF

Aeroports :

Linz, Àustria

latitud: 48-14N, longitud: 014-11E, altitud: 298 m

Observació

L'informe es va fer fa 30 minuts, a les 23:50 UTC
Vent 1 kt amb direcció variable
Temperatura 5°C
Humitat 75%
Pressió 1020 hPa
Visibilitat 10 km o més

METAR: LOWL 032350Z AUTO VRB01KT 9999 NSC 05/01 Q1020

Hora: 02:20 (00:20 UTC)

Pronòstic

L'informe es va fer fa 1 hora i 5 minuts, a les 23:15 UTC
Pronòstic vàlid del 04 a les 00 UTC al 04 a les 24 UTC
Vent 3 kt del Oest/Nord-Oest
Visibilitat 10 km o més
Cel ennuvolat a una alçada de 7000 ft
Evolucionant progressivament
l' 04 a les 12 UTC al 04 a les 14 UTC
Vent 4 kt del Est
Visibilitat 10 km o més
sense núvols per sota de 1500 mi sense presència de cumulonimbus.

TAF: LOWL 032315Z 0400/0424 30003KT 9999 BKN070 TX13/0415Z TN02/0404Z BECMG 0412/0414 08004KT CAVOK

Observacions i pronòstics meteorològics de més de 4000 aeroports (METAR i TAF).

Les estacions disponibles són els punts grocs i vermells al mapa.

Posi el ratolí al punt desitjat per veure el nom de l'estació.

Feu clic per veure les observacions i els pronòstics meteorològics.

Per canviar el mapa: feu clic els botons verds amb una creu de color negre per apropar; al botó verd amb un guió per allunyar la imatge; o en les fletxes verdes per a mapes adjacents.


METAR-TAF: